Impacts TAF Board INFO
FOR SITUATIONAL AWARENESS. NOT TO BE USED FOR FLIGHT PLANNING PURPOSES.
IDs:

KFLL - Ft Lauderdale-Hollyw, FL, US

Issued at 1720 UTC 25 Apr 2018
Updated at 2019 UTC 25 Apr 2018
Potential Impact None Slight Moderate High
Time1953Z 25/21Z 25/22Z 25/23Z 26/00Z 26/01Z 26/02Z 26/03Z 26/04Z 26/05Z 26/06Z 26/07Z 26/08Z 26/09Z>>
Type OBS PRVL PRVL PRVL PRVL PRVL PRVL PRVL PRVL PRVL PRVL PRVL PRVL PRVL
VIS 10 >6 >6 >6 >6 >6 >6 >6 >6 >6 >6 >6 >6 >6
CIG -- -- -- -- -- -- -- -- -- -- -- -- -- --
Cover SCT SKC SKC SKC SKC SKC SKC SKC SKC SKC SKC SKC SKC SKC
FltCat VFR VFR VFR VFR VFR VFR VFR VFR VFR VFR VFR VFR VFR VFR
WX -- -- -- -- -- -- -- -- -- -- -- -- -- --
WDir 110 170 170 170 170 290 290 290 290 290 290 290 290 290
WSpd 11 10 10 10 10 5 5 5 5 5 5 5 5 5
WGst -- -- -- -- -- -- -- -- -- -- -- -- -- --

Raw TAF
KFLL 251720Z 2518/2624 30008KT P6SM FEW250
  FM252000 17010KT P6SM SKC
  FM260100 29005KT P6SM SKC
  FM261400 27008KT P6SM SKC
  FM262100 17008KT P6SM SKC


Raw METAR
KFLL 251953Z 11011KT 10SM SCT055 27/19 A2989 RMK AO2 SLP120 T02670189
KFLL 251853Z 11010KT 10SM SCT055 26/18 A2991 RMK AO2 SLP128 T02610178
KFLL 251753Z VRB05KT 10SM FEW050 28/17 A2994 RMK AO2 SLP137 T02780167 10283 20211 58020

METAR Board
Radar Display
Forecast Discussion

FOR SITUATIONAL AWARENESS. NOT TO BE USED FOR FLIGHT PLANNING PURPOSES.